sensor_id;sensor_type;location;lat;lon;timestamp;P1;durP1;ratioP1;P2;durP2;ratioP2
49131;SDS011;35149;51.196;6.204;2023-07-20T00:01:12;4.10;;;3.03;;
49131;SDS011;35149;51.196;6.204;2023-07-20T00:03:46;4.20;;;3.17;;
49131;SDS011;35149;51.196;6.204;2023-07-20T00:06:24;3.53;;;3.17;;
49131;SDS011;35149;51.196;6.204;2023-07-20T00:08:56;4.97;;;3.08;;
49131;SDS011;35149;51.196;6.204;2023-07-20T00:11:26;4.10;;;2.70;;
49131;SDS011;35149;51.196;6.204;2023-07-20T00:13:53;4.75;;;2.72;;
49131;SDS011;35149;51.196;6.204;2023-07-20T00:16:20;3.53;;;2.85;;
49131;SDS011;35149;51.196;6.204;2023-07-20T00:18:49;3.38;;;2.50;;
49131;SDS011;35149;51.196;6.204;2023-07-20T00:21:15;3.55;;;2.88;;
49131;SDS011;35149;51.196;6.204;2023-07-20T00:23:42;3.30;;;2.72;;
49131;SDS011;35149;51.196;6.204;2023-07-20T00:26:12;3.00;;;2.80;;
49131;SDS011;35149;51.196;6.204;2023-07-20T00:28:42;3.83;;;2.42;;
49131;SDS011;35149;51.196;6.204;2023-07-20T00:31:13;3.25;;;2.92;;
49131;SDS011;35149;51.196;6.204;2023-07-20T00:33:42;3.33;;;2.65;;
49131;SDS011;35149;51.196;6.204;2023-07-20T00:36:09;4.60;;;2.55;;
49131;SDS011;35149;51.196;6.204;2023-07-20T00:38:36;2.72;;;2.53;;
49131;SDS011;35149;51.196;6.204;2023-07-20T00:41:05;2.78;;;2.40;;
49131;SDS011;35149;51.196;6.204;2023-07-20T00:43:33;4.88;;;2.92;;
49131;SDS011;35149;51.196;6.204;2023-07-20T00:46:00;5.38;;;2.47;;
49131;SDS011;35149;51.196;6.204;2023-07-20T00:48:29;4.07;;;2.22;;
49131;SDS011;35149;51.196;6.204;2023-07-20T00:50:57;4.10;;;2.28;;
49131;SDS011;35149;51.196;6.204;2023-07-20T00:53:28;3.95;;;2.28;;
49131;SDS011;35149;51.196;6.204;2023-07-20T00:55:57;3.92;;;2.80;;
49131;SDS011;35149;51.196;6.204;2023-07-20T00:58:24;3.55;;;2.10;;
49131;SDS011;35149;51.196;6.204;2023-07-20T01:00:51;3.05;;;2.03;;
49131;SDS011;35149;51.196;6.204;2023-07-20T01:03:20;3.63;;;3.17;;
49131;SDS011;35149;51.196;6.204;2023-07-20T01:11:52;3.75;;;2.30;;
49131;SDS011;35149;51.196;6.204;2023-07-20T01:14:23;2.63;;;2.42;;
49131;SDS011;35149;51.196;6.204;2023-07-20T01:16:51;2.72;;;2.35;;
49131;SDS011;35149;51.196;6.204;2023-07-20T01:19:21;4.68;;;2.85;;
49131;SDS011;35149;51.196;6.204;2023-07-20T01:21:51;3.00;;;2.35;;
49131;SDS011;35149;51.196;6.204;2023-07-20T01:24:45;3.47;;;2.97;;
49131;SDS011;35149;51.196;6.204;2023-07-20T01:33:29;4.05;;;2.38;;
49131;SDS011;35149;51.196;6.204;2023-07-20T01:36:02;2.83;;;2.30;;
49131;SDS011;35149;51.196;6.204;2023-07-20T01:38:32;2.97;;;2.15;;
49131;SDS011;35149;51.196;6.204;2023-07-20T01:41:01;2.72;;;2.20;;
49131;SDS011;35149;51.196;6.204;2023-07-20T01:43:32;3.80;;;2.65;;
49131;SDS011;35149;51.196;6.204;2023-07-20T01:46:01;4.03;;;3.10;;
49131;SDS011;35149;51.196;6.204;2023-07-20T01:48:27;3.50;;;2.90;;
49131;SDS011;35149;51.196;6.204;2023-07-20T01:50:57;3.08;;;2.75;;
49131;SDS011;35149;51.196;6.204;2023-07-20T01:53:25;3.42;;;2.80;;
49131;SDS011;35149;51.196;6.204;2023-07-20T01:55:52;2.72;;;2.35;;
49131;SDS011;35149;51.196;6.204;2023-07-20T01:58:23;3.80;;;2.20;;
49131;SDS011;35149;51.196;6.204;2023-07-20T02:00:51;3.08;;;2.42;;
49131;SDS011;35149;51.196;6.204;2023-07-20T02:03:21;3.08;;;2.60;;
49131;SDS011;35149;51.196;6.204;2023-07-20T02:05:55;3.97;;;2.50;;
49131;SDS011;35149;51.196;6.204;2023-07-20T02:08:25;4.45;;;2.40;;
49131;SDS011;35149;51.196;6.204;2023-07-20T02:10:56;3.40;;;2.78;;
49131;SDS011;35149;51.196;6.204;2023-07-20T02:13:23;3.97;;;2.63;;
49131;SDS011;35149;51.196;6.204;2023-07-20T02:15:52;5.80;;;2.85;;
49131;SDS011;35149;51.196;6.204;2023-07-20T02:18:24;6.03;;;3.40;;
49131;SDS011;35149;51.196;6.204;2023-07-20T02:20:52;3.08;;;2.72;;
49131;SDS011;35149;51.196;6.204;2023-07-20T02:23:20;4.15;;;2.72;;
49131;SDS011;35149;51.196;6.204;2023-07-20T02:25:47;2.72;;;2.40;;
49131;SDS011;35149;51.196;6.204;2023-07-20T02:28:14;3.63;;;2.58;;
49131;SDS011;35149;51.196;6.204;2023-07-20T02:30:49;4.15;;;3.25;;
49131;SDS011;35149;51.196;6.204;2023-07-20T02:33:19;3.53;;;2.67;;
49131;SDS011;35149;51.196;6.204;2023-07-20T02:35:47;4.03;;;2.88;;
49131;SDS011;35149;51.196;6.204;2023-07-20T02:38:24;3.83;;;2.75;;
49131;SDS011;35149;51.196;6.204;2023-07-20T02:40:50;3.47;;;2.55;;
49131;SDS011;35149;51.196;6.204;2023-07-20T02:43:17;3.40;;;2.50;;
49131;SDS011;35149;51.196;6.204;2023-07-20T02:45:45;4.25;;;2.85;;
49131;SDS011;35149;51.196;6.204;2023-07-20T02:48:15;4.25;;;3.83;;
49131;SDS011;35149;51.196;6.204;2023-07-20T02:50:43;4.18;;;2.55;;
49131;SDS011;35149;51.196;6.204;2023-07-20T02:53:13;3.03;;;2.80;;
49131;SDS011;35149;51.196;6.204;2023-07-20T02:55:41;3.17;;;2.88;;
49131;SDS011;35149;51.196;6.204;2023-07-20T02:58:10;3.67;;;2.58;;
49131;SDS011;35149;51.196;6.204;2023-07-20T03:00:39;4.07;;;3.15;;
49131;SDS011;35149;51.196;6.204;2023-07-20T03:03:05;4.20;;;2.67;;
49131;SDS011;35149;51.196;6.204;2023-07-20T03:05:40;5.30;;;2.83;;
49131;SDS011;35149;51.196;6.204;2023-07-20T03:08:10;6.93;;;3.33;;
49131;SDS011;35149;51.196;6.204;2023-07-20T03:10:42;3.05;;;2.70;;
49131;SDS011;35149;51.196;6.204;2023-07-20T03:15:39;2.47;;;2.28;;
49131;SDS011;35149;51.196;6.204;2023-07-20T03:18:08;3.75;;;2.55;;
49131;SDS011;35149;51.196;6.204;2023-07-20T03:20:35;3.40;;;3.00;;
49131;SDS011;35149;51.196;6.204;2023-07-20T03:23:02;3.75;;;2.53;;
49131;SDS011;35149;51.196;6.204;2023-07-20T03:25:29;3.85;;;2.63;;
49131;SDS011;35149;51.196;6.204;2023-07-20T03:27:59;5.45;;;2.72;;
49131;SDS011;35149;51.196;6.204;2023-07-20T03:30:28;5.60;;;3.50;;
49131;SDS011;35149;51.196;6.204;2023-07-20T03:32:55;3.78;;;2.60;;
49131;SDS011;35149;51.196;6.204;2023-07-20T03:35:24;4.07;;;2.70;;
49131;SDS011;35149;51.196;6.204;2023-07-20T03:37:53;3.60;;;2.85;;
49131;SDS011;35149;51.196;6.204;2023-07-20T03:40:23;4.68;;;2.88;;
49131;SDS011;35149;51.196;6.204;2023-07-20T03:42:53;3.33;;;2.83;;
49131;SDS011;35149;51.196;6.204;2023-07-20T03:45:22;3.28;;;2.85;;
49131;SDS011;35149;51.196;6.204;2023-07-20T03:47:53;3.42;;;2.92;;
49131;SDS011;35149;51.196;6.204;2023-07-20T03:50:22;2.97;;;2.67;;
49131;SDS011;35149;51.196;6.204;2023-07-20T03:52:51;3.47;;;2.95;;
49131;SDS011;35149;51.196;6.204;2023-07-20T03:55:18;5.20;;;3.28;;
49131;SDS011;35149;51.196;6.204;2023-07-20T03:57:47;5.20;;;3.72;;
49131;SDS011;35149;51.196;6.204;2023-07-20T04:00:20;7.80;;;4.30;;
49131;SDS011;35149;51.196;6.204;2023-07-20T04:02:48;4.30;;;3.08;;
49131;SDS011;35149;51.196;6.204;2023-07-20T04:05:19;4.07;;;3.38;;
49131;SDS011;35149;51.196;6.204;2023-07-20T04:07:47;5.25;;;4.25;;
49131;SDS011;35149;51.196;6.204;2023-07-20T04:10:17;7.68;;;3.80;;
49131;SDS011;35149;51.196;6.204;2023-07-20T04:12:51;5.32;;;3.47;;
49131;SDS011;35149;51.196;6.204;2023-07-20T04:15:21;6.40;;;4.88;;
49131;SDS011;35149;51.196;6.204;2023-07-20T04:17:48;8.13;;;5.32;;
49131;SDS011;35149;51.196;6.204;2023-07-20T04:20:15;7.22;;;5.95;;
49131;SDS011;35149;51.196;6.204;2023-07-20T04:22:44;9.35;;;7.22;;
49131;SDS011;35149;51.196;6.204;2023-07-20T04:25:17;8.95;;;7.75;;
49131;SDS011;35149;51.196;6.204;2023-07-20T04:27:48;9.18;;;7.72;;
49131;SDS011;35149;51.196;6.204;2023-07-20T04:30:17;10.63;;;7.82;;
49131;SDS011;35149;51.196;6.204;2023-07-20T04:32:51;8.43;;;7.18;;
49131;SDS011;35149;51.196;6.204;2023-07-20T04:38:13;9.57;;;7.30;;
49131;SDS011;35149;51.196;6.204;2023-07-20T04:40:47;10.38;;;8.00;;
49131;SDS011;35149;51.196;6.204;2023-07-20T04:43:17;9.85;;;7.65;;
49131;SDS011;35149;51.196;6.204;2023-07-20T04:45:44;7.88;;;6.35;;
49131;SDS011;35149;51.196;6.204;2023-07-20T04:48:21;9.77;;;7.18;;
49131;SDS011;35149;51.196;6.204;2023-07-20T04:50:50;9.25;;;7.25;;
49131;SDS011;35149;51.196;6.204;2023-07-20T04:53:20;8.75;;;6.53;;
49131;SDS011;35149;51.196;6.204;2023-07-20T04:55:50;10.52;;;7.07;;
49131;SDS011;35149;51.196;6.204;2023-07-20T04:58:21;8.93;;;7.28;;
49131;SDS011;35149;51.196;6.204;2023-07-20T05:00:49;9.23;;;7.03;;
49131;SDS011;35149;51.196;6.204;2023-07-20T05:03:16;9.23;;;7.57;;
49131;SDS011;35149;51.196;6.204;2023-07-20T05:05:44;9.23;;;7.35;;
49131;SDS011;35149;51.196;6.204;2023-07-20T05:08:15;9.73;;;7.85;;
49131;SDS011;35149;51.196;6.204;2023-07-20T05:10:43;9.85;;;7.72;;
49131;SDS011;35149;51.196;6.204;2023-07-20T05:13:10;9.95;;;7.53;;
49131;SDS011;35149;51.196;6.204;2023-07-20T05:15:37;10.98;;;8.98;;
49131;SDS011;35149;51.196;6.204;2023-07-20T05:18:05;11.35;;;7.60;;
49131;SDS011;35149;51.196;6.204;2023-07-20T05:20:32;10.00;;;8.10;;
49131;SDS011;35149;51.196;6.204;2023-07-20T05:23:00;10.20;;;7.60;;
49131;SDS011;35149;51.196;6.204;2023-07-20T05:25:27;9.70;;;8.02;;
49131;SDS011;35149;51.196;6.204;2023-07-20T05:27:56;9.88;;;8.45;;
49131;SDS011;35149;51.196;6.204;2023-07-20T05:30:23;10.63;;;8.40;;
49131;SDS011;35149;51.196;6.204;2023-07-20T05:32:50;9.90;;;7.97;;
49131;SDS011;35149;51.196;6.204;2023-07-20T05:35:18;10.68;;;7.57;;
49131;SDS011;35149;51.196;6.204;2023-07-20T05:37:45;10.60;;;8.38;;
49131;SDS011;35149;51.196;6.204;2023-07-20T05:40:12;9.00;;;8.10;;
49131;SDS011;35149;51.196;6.204;2023-07-20T05:42:40;9.65;;;7.55;;
49131;SDS011;35149;51.196;6.204;2023-07-20T05:45:07;9.98;;;7.85;;
49131;SDS011;35149;51.196;6.204;2023-07-20T05:47:34;8.15;;;7.05;;
49131;SDS011;35149;51.196;6.204;2023-07-20T05:50:01;8.70;;;7.57;;
49131;SDS011;35149;51.196;6.204;2023-07-20T05:52:28;8.30;;;7.40;;
49131;SDS011;35149;51.196;6.204;2023-07-20T05:54:55;12.70;;;8.23;;
49131;SDS011;35149;51.196;6.204;2023-07-20T05:57:24;12.85;;;8.15;;
49131;SDS011;35149;51.196;6.204;2023-07-20T05:59:51;8.50;;;7.60;;
49131;SDS011;35149;51.196;6.204;2023-07-20T06:02:18;9.98;;;7.20;;
49131;SDS011;35149;51.196;6.204;2023-07-20T06:04:44;6.35;;;5.75;;
49131;SDS011;35149;51.196;6.204;2023-07-20T06:07:11;6.88;;;6.25;;
49131;SDS011;35149;51.196;6.204;2023-07-20T06:09:38;10.18;;;6.93;;
49131;SDS011;35149;51.196;6.204;2023-07-20T06:12:05;8.15;;;6.53;;
49131;SDS011;35149;51.196;6.204;2023-07-20T06:14:32;7.15;;;6.45;;
49131;SDS011;35149;51.196;6.204;2023-07-20T06:16:59;7.40;;;6.70;;
49131;SDS011;35149;51.196;6.204;2023-07-20T06:19:28;6.22;;;5.72;;
49131;SDS011;35149;51.196;6.204;2023-07-20T06:21:57;9.10;;;6.10;;
49131;SDS011;35149;51.196;6.204;2023-07-20T06:24:24;7.43;;;6.15;;
49131;SDS011;35149;51.196;6.204;2023-07-20T06:26:50;5.20;;;4.70;;
49131;SDS011;35149;51.196;6.204;2023-07-20T06:29:17;4.97;;;4.50;;
49131;SDS011;35149;51.196;6.204;2023-07-20T06:31:44;5.28;;;4.78;;
49131;SDS011;35149;51.196;6.204;2023-07-20T06:34:10;5.93;;;5.32;;
49131;SDS011;35149;51.196;6.204;2023-07-20T06:36:37;7.30;;;6.60;;
49131;SDS011;35149;51.196;6.204;2023-07-20T06:39:04;6.93;;;5.40;;
49131;SDS011;35149;51.196;6.204;2023-07-20T06:41:34;6.57;;;5.88;;
49131;SDS011;35149;51.196;6.204;2023-07-20T06:44:03;5.22;;;4.82;;
49131;SDS011;35149;51.196;6.204;2023-07-20T06:46:31;6.97;;;6.38;;
49131;SDS011;35149;51.196;6.204;2023-07-20T06:48:58;5.10;;;4.70;;
49131;SDS011;35149;51.196;6.204;2023-07-20T06:51:27;6.93;;;5.38;;
49131;SDS011;35149;51.196;6.204;2023-07-20T06:53:54;6.40;;;5.03;;
49131;SDS011;35149;51.196;6.204;2023-07-20T06:56:20;5.90;;;4.72;;
49131;SDS011;35149;51.196;6.204;2023-07-20T06:58:51;4.85;;;4.45;;
49131;SDS011;35149;51.196;6.204;2023-07-20T07:01:18;3.92;;;3.60;;
49131;SDS011;35149;51.196;6.204;2023-07-20T07:03:45;5.30;;;4.07;;
49131;SDS011;35149;51.196;6.204;2023-07-20T07:06:12;4.45;;;4.05;;
49131;SDS011;35149;51.196;6.204;2023-07-20T07:08:38;4.72;;;4.32;;
49131;SDS011;35149;51.196;6.204;2023-07-20T07:11:05;5.95;;;4.05;;
49131;SDS011;35149;51.196;6.204;2023-07-20T07:13:32;5.03;;;4.40;;
49131;SDS011;35149;51.196;6.204;2023-07-20T07:15:59;5.95;;;5.22;;
49131;SDS011;35149;51.196;6.204;2023-07-20T07:18:26;7.20;;;4.75;;
49131;SDS011;35149;51.196;6.204;2023-07-20T07:20:53;4.97;;;4.57;;
49131;SDS011;35149;51.196;6.204;2023-07-20T07:23:20;5.90;;;5.10;;
49131;SDS011;35149;51.196;6.204;2023-07-20T07:25:47;6.28;;;5.68;;
49131;SDS011;35149;51.196;6.204;2023-07-20T07:28:14;6.05;;;4.93;;
49131;SDS011;35149;51.196;6.204;2023-07-20T07:30:40;3.80;;;3.50;;
49131;SDS011;35149;51.196;6.204;2023-07-20T07:33:07;4.10;;;3.10;;
49131;SDS011;35149;51.196;6.204;2023-07-20T07:35:36;4.88;;;3.67;;
49131;SDS011;35149;51.196;6.204;2023-07-20T07:38:03;4.60;;;4.20;;
49131;SDS011;35149;51.196;6.204;2023-07-20T07:40:49;4.45;;;4.05;;
49131;SDS011;35149;51.196;6.204;2023-07-20T07:43:16;4.43;;;3.88;;
49131;SDS011;35149;51.196;6.204;2023-07-20T07:45:45;4.13;;;3.83;;
49131;SDS011;35149;51.196;6.204;2023-07-20T07:48:12;4.90;;;3.65;;
49131;SDS011;35149;51.196;6.204;2023-07-20T07:50:40;1.77;;;1.42;;
49131;SDS011;35149;51.196;6.204;2023-07-20T07:53:08;1.85;;;1.75;;
49131;SDS011;35149;51.196;6.204;2023-07-20T07:55:35;2.63;;;2.35;;
49131;SDS011;35149;51.196;6.204;2023-07-20T07:58:04;3.42;;;3.13;;
49131;SDS011;35149;51.196;6.204;2023-07-20T08:00:31;3.08;;;2.88;;
49131;SDS011;35149;51.196;6.204;2023-07-20T08:02:58;3.35;;;2.45;;
49131;SDS011;35149;51.196;6.204;2023-07-20T08:05:24;6.30;;;2.63;;
49131;SDS011;35149;51.196;6.204;2023-07-20T08:07:52;3.03;;;2.72;;
49131;SDS011;35149;51.196;6.204;2023-07-20T08:10:19;1.90;;;1.67;;
49131;SDS011;35149;51.196;6.204;2023-07-20T08:12:45;2.38;;;2.17;;
49131;SDS011;35149;51.196;6.204;2023-07-20T08:15:12;2.40;;;1.80;;
49131;SDS011;35149;51.196;6.204;2023-07-20T08:17:41;2.50;;;1.70;;
49131;SDS011;35149;51.196;6.204;2023-07-20T08:20:08;2.20;;;1.73;;
49131;SDS011;35149;51.196;6.204;2023-07-20T08:22:38;2.15;;;1.95;;
49131;SDS011;35149;51.196;6.204;2023-07-20T08:25:06;1.95;;;1.80;;
49131;SDS011;35149;51.196;6.204;2023-07-20T08:27:33;1.55;;;1.40;;
49131;SDS011;35149;51.196;6.204;2023-07-20T08:30:00;1.65;;;1.50;;
49131;SDS011;35149;51.196;6.204;2023-07-20T08:32:27;1.90;;;1.80;;
49131;SDS011;35149;51.196;6.204;2023-07-20T08:34:54;1.83;;;1.70;;
49131;SDS011;35149;51.196;6.204;2023-07-20T08:37:21;1.67;;;1.35;;
49131;SDS011;35149;51.196;6.204;2023-07-20T08:39:48;1.20;;;1.15;;
49131;SDS011;35149;51.196;6.204;2023-07-20T08:42:18;2.55;;;1.23;;
49131;SDS011;35149;51.196;6.204;2023-07-20T08:44:44;1.55;;;1.45;;
49131;SDS011;35149;51.196;6.204;2023-07-20T08:47:14;2.38;;;1.23;;
49131;SDS011;35149;51.196;6.204;2023-07-20T08:49:42;2.10;;;2.00;;
49131;SDS011;35149;51.196;6.204;2023-07-20T08:52:09;1.67;;;1.52;;
49131;SDS011;35149;51.196;6.204;2023-07-20T08:54:36;1.05;;;1.05;;
49131;SDS011;35149;51.196;6.204;2023-07-20T08:57:04;1.33;;;1.23;;
49131;SDS011;35149;51.196;6.204;2023-07-20T08:59:32;1.67;;;1.08;;
49131;SDS011;35149;51.196;6.204;2023-07-20T09:02:00;1.00;;;0.60;;
49131;SDS011;35149;51.196;6.204;2023-07-20T09:04:28;1.17;;;0.80;;
49131;SDS011;35149;51.196;6.204;2023-07-20T09:06:55;0.73;;;0.60;;
49131;SDS011;35149;51.196;6.204;2023-07-20T09:09:23;0.70;;;0.68;;
49131;SDS011;35149;51.196;6.204;2023-07-20T09:11:50;0.50;;;0.50;;
49131;SDS011;35149;51.196;6.204;2023-07-20T09:14:16;0.68;;;0.68;;
49131;SDS011;35149;51.196;6.204;2023-07-20T09:16:47;0.82;;;0.82;;
49131;SDS011;35149;51.196;6.204;2023-07-20T09:19:15;0.40;;;0.40;;
49131;SDS011;35149;51.196;6.204;2023-07-20T09:21:49;0.70;;;0.63;;
49131;SDS011;35149;51.196;6.204;2023-07-20T09:24:17;0.55;;;0.55;;
49131;SDS011;35149;51.196;6.204;2023-07-20T09:26:46;0.70;;;0.70;;
49131;SDS011;35149;51.196;6.204;2023-07-20T09:29:20;0.60;;;0.60;;
49131;SDS011;35149;51.196;6.204;2023-07-20T09:31:59;0.60;;;0.60;;
49131;SDS011;35149;51.196;6.204;2023-07-20T09:34:29;0.85;;;0.73;;
49131;SDS011;35149;51.196;6.204;2023-07-20T09:37:00;0.73;;;0.73;;
49131;SDS011;35149;51.196;6.204;2023-07-20T09:39:29;0.60;;;0.60;;
49131;SDS011;35149;51.196;6.204;2023-07-20T09:41:59;0.70;;;0.57;;
49131;SDS011;35149;51.196;6.204;2023-07-20T09:44:30;2.72;;;0.43;;
49131;SDS011;35149;51.196;6.204;2023-07-20T09:47:02;1.10;;;0.60;;
49131;SDS011;35149;51.196;6.204;2023-07-20T09:49:30;0.57;;;0.57;;
49131;SDS011;35149;51.196;6.204;2023-07-20T09:52:20;0.60;;;0.60;;
49131;SDS011;35149;51.196;6.204;2023-07-20T09:54:50;0.70;;;0.70;;
49131;SDS011;35149;51.196;6.204;2023-07-20T09:57:17;0.90;;;0.70;;
49131;SDS011;35149;51.196;6.204;2023-07-20T09:59:44;0.93;;;0.80;;
49131;SDS011;35149;51.196;6.204;2023-07-20T10:02:15;0.70;;;0.70;;
49131;SDS011;35149;51.196;6.204;2023-07-20T10:04:49;1.95;;;0.77;;
49131;SDS011;35149;51.196;6.204;2023-07-20T10:07:19;0.80;;;0.50;;
49131;SDS011;35149;51.196;6.204;2023-07-20T10:09:50;1.00;;;0.70;;
49131;SDS011;35149;51.196;6.204;2023-07-20T10:12:19;1.63;;;0.57;;
49131;SDS011;35149;51.196;6.204;2023-07-20T10:14:59;0.90;;;0.60;;
49131;SDS011;35149;51.196;6.204;2023-07-20T10:17:35;2.17;;;0.63;;
49131;SDS011;35149;51.196;6.204;2023-07-20T10:20:06;0.93;;;0.93;;
49131;SDS011;35149;51.196;6.204;2023-07-20T10:22:35;0.63;;;0.60;;
49131;SDS011;35149;51.196;6.204;2023-07-20T10:25:07;0.50;;;0.50;;
49131;SDS011;35149;51.196;6.204;2023-07-20T10:27:34;0.75;;;0.40;;
49131;SDS011;35149;51.196;6.204;2023-07-20T10:30:01;0.47;;;0.40;;
49131;SDS011;35149;51.196;6.204;2023-07-20T10:32:31;5.22;;;0.82;;
49131;SDS011;35149;51.196;6.204;2023-07-20T10:34:59;0.77;;;0.68;;
49131;SDS011;35149;51.196;6.204;2023-07-20T10:43:04;1.30;;;0.63;;
49131;SDS011;35149;51.196;6.204;2023-07-20T10:45:33;0.65;;;0.60;;
49131;SDS011;35149;51.196;6.204;2023-07-20T10:48:19;0.45;;;0.45;;
49131;SDS011;35149;51.196;6.204;2023-07-20T10:53:40;1.80;;;0.50;;
49131;SDS011;35149;51.196;6.204;2023-07-20T10:56:13;2.88;;;0.65;;
49131;SDS011;35149;51.196;6.204;2023-07-20T10:58:41;0.70;;;0.40;;
49131;SDS011;35149;51.196;6.204;2023-07-20T11:01:09;1.27;;;0.70;;
49131;SDS011;35149;51.196;6.204;2023-07-20T11:03:42;0.43;;;0.43;;
49131;SDS011;35149;51.196;6.204;2023-07-20T11:09:05;17.42;;;1.85;;
49131;SDS011;35149;51.196;6.204;2023-07-20T11:11:35;2.30;;;1.00;;
49131;SDS011;35149;51.196;6.204;2023-07-20T11:14:04;5.40;;;0.90;;
49131;SDS011;35149;51.196;6.204;2023-07-20T11:16:35;0.70;;;0.43;;
49131;SDS011;35149;51.196;6.204;2023-07-20T11:19:19;4.13;;;0.60;;
49131;SDS011;35149;51.196;6.204;2023-07-20T11:21:53;0.60;;;0.60;;
49131;SDS011;35149;51.196;6.204;2023-07-20T11:24:28;1.55;;;0.40;;
49131;SDS011;35149;51.196;6.204;2023-07-20T11:26:55;0.57;;;0.50;;
49131;SDS011;35149;51.196;6.204;2023-07-20T11:29:22;0.70;;;0.45;;
49131;SDS011;35149;51.196;6.204;2023-07-20T11:31:58;2.33;;;0.60;;
49131;SDS011;35149;51.196;6.204;2023-07-20T11:34:25;0.70;;;0.47;;
49131;SDS011;35149;51.196;6.204;2023-07-20T11:36:53;0.43;;;0.40;;
49131;SDS011;35149;51.196;6.204;2023-07-20T11:39:23;1.58;;;0.50;;
49131;SDS011;35149;51.196;6.204;2023-07-20T11:41:52;0.45;;;0.40;;
49131;SDS011;35149;51.196;6.204;2023-07-20T11:44:21;0.55;;;0.43;;
49131;SDS011;35149;51.196;6.204;2023-07-20T11:47:03;0.60;;;0.57;;
49131;SDS011;35149;51.196;6.204;2023-07-20T11:49:35;1.13;;;0.57;;
49131;SDS011;35149;51.196;6.204;2023-07-20T11:52:05;0.40;;;0.38;;
49131;SDS011;35149;51.196;6.204;2023-07-20T11:54:37;0.60;;;0.55;;
49131;SDS011;35149;51.196;6.204;2023-07-20T11:57:05;1.20;;;0.50;;
49131;SDS011;35149;51.196;6.204;2023-07-20T11:59:32;0.55;;;0.30;;
49131;SDS011;35149;51.196;6.204;2023-07-20T12:02:03;0.55;;;0.40;;
49131;SDS011;35149;51.196;6.204;2023-07-20T12:04:31;0.50;;;0.35;;
49131;SDS011;35149;51.196;6.204;2023-07-20T12:06:58;0.50;;;0.40;;
49131;SDS011;35149;51.196;6.204;2023-07-20T12:09:25;0.55;;;0.43;;
49131;SDS011;35149;51.196;6.204;2023-07-20T12:12:10;1.20;;;0.30;;
49131;SDS011;35149;51.196;6.204;2023-07-20T12:14:38;0.47;;;0.47;;
49131;SDS011;35149;51.196;6.204;2023-07-20T12:17:07;0.50;;;0.50;;
49131;SDS011;35149;51.196;6.204;2023-07-20T12:19:37;1.38;;;0.50;;
49131;SDS011;35149;51.196;6.204;2023-07-20T12:22:06;1.20;;;0.55;;
49131;SDS011;35149;51.196;6.204;2023-07-20T12:24:33;0.40;;;0.40;;
49131;SDS011;35149;51.196;6.204;2023-07-20T12:27:00;1.02;;;0.40;;
49131;SDS011;35149;51.196;6.204;2023-07-20T12:29:26;1.20;;;0.70;;
49131;SDS011;35149;51.196;6.204;2023-07-20T12:31:53;0.80;;;0.70;;
49131;SDS011;35149;51.196;6.204;2023-07-20T12:34:20;0.80;;;0.50;;
49131;SDS011;35149;51.196;6.204;2023-07-20T12:36:46;13.82;;;2.05;;
49131;SDS011;35149;51.196;6.204;2023-07-20T12:39:13;0.55;;;0.50;;
49131;SDS011;35149;51.196;6.204;2023-07-20T12:41:40;1.10;;;0.75;;
49131;SDS011;35149;51.196;6.204;2023-07-20T12:44:07;0.50;;;0.50;;
49131;SDS011;35149;51.196;6.204;2023-07-20T12:46:33;9.32;;;1.40;;
49131;SDS011;35149;51.196;6.204;2023-07-20T12:49:03;17.90;;;2.75;;
49131;SDS011;35149;51.196;6.204;2023-07-20T12:51:30;66.05;;;9.18;;
49131;SDS011;35149;51.196;6.204;2023-07-20T12:53:57;3.03;;;0.60;;
49131;SDS011;35149;51.196;6.204;2023-07-20T12:56:23;0.85;;;0.43;;
49131;SDS011;35149;51.196;6.204;2023-07-20T12:58:53;2.92;;;0.68;;
49131;SDS011;35149;51.196;6.204;2023-07-20T13:01:20;2.90;;;0.70;;
49131;SDS011;35149;51.196;6.204;2023-07-20T13:03:47;0.40;;;0.40;;
49131;SDS011;35149;51.196;6.204;2023-07-20T13:06:17;1.73;;;0.50;;
49131;SDS011;35149;51.196;6.204;2023-07-20T13:08:50;2.38;;;0.57;;
49131;SDS011;35149;51.196;6.204;2023-07-20T13:11:22;1.80;;;0.67;;
49131;SDS011;35149;51.196;6.204;2023-07-20T13:13:49;1.40;;;0.70;;
49131;SDS011;35149;51.196;6.204;2023-07-20T13:16:15;10.45;;;1.00;;
49131;SDS011;35149;51.196;6.204;2023-07-20T13:18:45;2.83;;;0.73;;
49131;SDS011;35149;51.196;6.204;2023-07-20T13:21:11;27.95;;;3.85;;
49131;SDS011;35149;51.196;6.204;2023-07-20T13:23:39;4.93;;;1.00;;
49131;SDS011;35149;51.196;6.204;2023-07-20T13:26:05;31.73;;;2.35;;
49131;SDS011;35149;51.196;6.204;2023-07-20T13:28:34;9.35;;;1.20;;
49131;SDS011;35149;51.196;6.204;2023-07-20T13:31:01;3.45;;;1.15;;
49131;SDS011;35149;51.196;6.204;2023-07-20T13:33:29;1.80;;;0.40;;
49131;SDS011;35149;51.196;6.204;2023-07-20T13:35:56;1.75;;;0.57;;
49131;SDS011;35149;51.196;6.204;2023-07-20T13:38:22;0.30;;;0.30;;
49131;SDS011;35149;51.196;6.204;2023-07-20T13:40:49;2.95;;;0.40;;
49131;SDS011;35149;51.196;6.204;2023-07-20T13:43:16;2.83;;;0.60;;
49131;SDS011;35149;51.196;6.204;2023-07-20T13:45:42;0.95;;;0.30;;
49131;SDS011;35149;51.196;6.204;2023-07-20T13:48:09;1.00;;;0.40;;
49131;SDS011;35149;51.196;6.204;2023-07-20T13:50:36;0.40;;;0.40;;
49131;SDS011;35149;51.196;6.204;2023-07-20T13:53:05;1.65;;;0.40;;
49131;SDS011;35149;51.196;6.204;2023-07-20T13:55:35;1.77;;;0.60;;
49131;SDS011;35149;51.196;6.204;2023-07-20T13:58:06;0.60;;;0.52;;
49131;SDS011;35149;51.196;6.204;2023-07-20T14:00:32;0.63;;;0.63;;
49131;SDS011;35149;51.196;6.204;2023-07-20T14:03:01;1.05;;;0.70;;
49131;SDS011;35149;51.196;6.204;2023-07-20T14:05:31;0.75;;;0.50;;
49131;SDS011;35149;51.196;6.204;2023-07-20T14:08:00;0.85;;;0.50;;
49131;SDS011;35149;51.196;6.204;2023-07-20T14:10:27;0.98;;;0.57;;
49131;SDS011;35149;51.196;6.204;2023-07-20T14:12:54;0.47;;;0.47;;
49131;SDS011;35149;51.196;6.204;2023-07-20T14:15:20;1.23;;;0.35;;
49131;SDS011;35149;51.196;6.204;2023-07-20T14:17:47;0.40;;;0.40;;
49131;SDS011;35149;51.196;6.204;2023-07-20T14:20:14;0.70;;;0.47;;
49131;SDS011;35149;51.196;6.204;2023-07-20T14:22:46;1.05;;;0.40;;
49131;SDS011;35149;51.196;6.204;2023-07-20T14:25:17;1.65;;;0.50;;
49131;SDS011;35149;51.196;6.204;2023-07-20T14:27:46;0.50;;;0.50;;
49131;SDS011;35149;51.196;6.204;2023-07-20T14:30:13;1.98;;;0.65;;
49131;SDS011;35149;51.196;6.204;2023-07-20T14:32:40;1.02;;;0.70;;
49131;SDS011;35149;51.196;6.204;2023-07-20T14:35:11;0.95;;;0.60;;
49131;SDS011;35149;51.196;6.204;2023-07-20T14:37:38;1.00;;;0.68;;
49131;SDS011;35149;51.196;6.204;2023-07-20T14:40:05;1.05;;;0.43;;
49131;SDS011;35149;51.196;6.204;2023-07-20T14:42:34;0.63;;;0.40;;
49131;SDS011;35149;51.196;6.204;2023-07-20T14:45:01;0.68;;;0.35;;
49131;SDS011;35149;51.196;6.204;2023-07-20T14:47:28;0.65;;;0.32;;
49131;SDS011;35149;51.196;6.204;2023-07-20T14:49:58;1.17;;;0.30;;
49131;SDS011;35149;51.196;6.204;2023-07-20T14:52:25;0.40;;;0.40;;
49131;SDS011;35149;51.196;6.204;2023-07-20T14:54:54;1.02;;;0.45;;
49131;SDS011;35149;51.196;6.204;2023-07-20T14:57:21;0.40;;;0.40;;
49131;SDS011;35149;51.196;6.204;2023-07-20T14:59:49;0.60;;;0.40;;
49131;SDS011;35149;51.196;6.204;2023-07-20T15:02:16;0.98;;;0.50;;
49131;SDS011;35149;51.196;6.204;2023-07-20T15:04:46;0.68;;;0.55;;
49131;SDS011;35149;51.196;6.204;2023-07-20T15:07:20;1.38;;;0.45;;
49131;SDS011;35149;51.196;6.204;2023-07-20T15:09:50;0.55;;;0.43;;
49131;SDS011;35149;51.196;6.204;2023-07-20T15:12:16;1.13;;;0.75;;
49131;SDS011;35149;51.196;6.204;2023-07-20T15:14:43;1.40;;;0.30;;
49131;SDS011;35149;51.196;6.204;2023-07-20T15:17:27;1.10;;;0.40;;
49131;SDS011;35149;51.196;6.204;2023-07-20T15:19:54;1.05;;;0.43;;
49131;SDS011;35149;51.196;6.204;2023-07-20T15:22:21;0.60;;;0.60;;
49131;SDS011;35149;51.196;6.204;2023-07-20T15:24:48;0.82;;;0.40;;
49131;SDS011;35149;51.196;6.204;2023-07-20T15:27:15;1.10;;;0.55;;